sensor_id;sensor_type;location;lat;lon;timestamp;P1;durP1;ratioP1;P2;durP2;ratioP2
19814;SDS011;10067;53.092;8.800;2023-05-16T00:01:32;12.52;;;2.45;;
19814;SDS011;10067;53.092;8.800;2023-05-16T00:04:00;8.45;;;2.30;;
19814;SDS011;10067;53.092;8.800;2023-05-16T00:06:27;8.88;;;2.60;;
19814;SDS011;10067;53.092;8.800;2023-05-16T00:08:54;7.68;;;3.05;;
19814;SDS011;10067;53.092;8.800;2023-05-16T00:11:20;12.30;;;3.13;;
19814;SDS011;10067;53.092;8.800;2023-05-16T00:13:47;7.90;;;2.58;;
19814;SDS011;10067;53.092;8.800;2023-05-16T00:16:13;6.45;;;2.33;;
19814;SDS011;10067;53.092;8.800;2023-05-16T00:18:40;8.98;;;2.47;;
19814;SDS011;10067;53.092;8.800;2023-05-16T00:21:10;13.65;;;3.75;;
19814;SDS011;10067;53.092;8.800;2023-05-16T00:23:37;11.07;;;2.58;;
19814;SDS011;10067;53.092;8.800;2023-05-16T00:26:04;12.15;;;3.08;;
19814;SDS011;10067;53.092;8.800;2023-05-16T00:28:30;15.02;;;3.33;;
19814;SDS011;10067;53.092;8.800;2023-05-16T00:30:56;9.60;;;2.92;;
19814;SDS011;10067;53.092;8.800;2023-05-16T00:33:23;16.15;;;3.25;;
19814;SDS011;10067;53.092;8.800;2023-05-16T00:35:49;12.18;;;3.20;;
19814;SDS011;10067;53.092;8.800;2023-05-16T00:38:19;16.63;;;2.97;;
19814;SDS011;10067;53.092;8.800;2023-05-16T00:40:45;11.68;;;3.08;;
19814;SDS011;10067;53.092;8.800;2023-05-16T00:43:11;12.57;;;3.55;;
19814;SDS011;10067;53.092;8.800;2023-05-16T00:45:38;12.07;;;3.05;;
19814;SDS011;10067;53.092;8.800;2023-05-16T00:48:04;13.48;;;3.72;;
19814;SDS011;10067;53.092;8.800;2023-05-16T00:50:31;11.15;;;2.85;;
19814;SDS011;10067;53.092;8.800;2023-05-16T00:52:57;9.65;;;2.33;;
19814;SDS011;10067;53.092;8.800;2023-05-16T00:55:25;16.35;;;3.28;;
19814;SDS011;10067;53.092;8.800;2023-05-16T00:57:52;11.00;;;2.60;;
19814;SDS011;10067;53.092;8.800;2023-05-16T01:00:18;14.02;;;2.75;;
19814;SDS011;10067;53.092;8.800;2023-05-16T01:02:45;14.38;;;3.10;;
19814;SDS011;10067;53.092;8.800;2023-05-16T01:05:11;11.07;;;3.35;;
19814;SDS011;10067;53.092;8.800;2023-05-16T01:07:38;13.32;;;2.92;;
19814;SDS011;10067;53.092;8.800;2023-05-16T01:10:04;14.63;;;3.03;;
19814;SDS011;10067;53.092;8.800;2023-05-16T01:12:36;12.52;;;3.88;;
19814;SDS011;10067;53.092;8.800;2023-05-16T01:15:04;11.20;;;2.83;;
19814;SDS011;10067;53.092;8.800;2023-05-16T01:17:43;13.40;;;3.70;;
19814;SDS011;10067;53.092;8.800;2023-05-16T01:20:13;10.48;;;2.67;;
19814;SDS011;10067;53.092;8.800;2023-05-16T01:22:46;12.23;;;2.88;;
19814;SDS011;10067;53.092;8.800;2023-05-16T01:25:21;16.70;;;3.15;;
19814;SDS011;10067;53.092;8.800;2023-05-16T01:27:53;18.23;;;3.17;;
19814;SDS011;10067;53.092;8.800;2023-05-16T01:30:20;24.95;;;4.00;;
19814;SDS011;10067;53.092;8.800;2023-05-16T01:32:47;7.47;;;2.85;;
19814;SDS011;10067;53.092;8.800;2023-05-16T01:35:14;12.55;;;3.05;;
19814;SDS011;10067;53.092;8.800;2023-05-16T01:37:41;12.98;;;3.22;;
19814;SDS011;10067;53.092;8.800;2023-05-16T01:40:11;22.38;;;3.65;;
19814;SDS011;10067;53.092;8.800;2023-05-16T01:42:38;16.98;;;3.35;;
19814;SDS011;10067;53.092;8.800;2023-05-16T01:45:11;21.67;;;3.33;;
19814;SDS011;10067;53.092;8.800;2023-05-16T01:47:40;18.83;;;3.50;;
19814;SDS011;10067;53.092;8.800;2023-05-16T01:50:07;14.70;;;3.00;;
19814;SDS011;10067;53.092;8.800;2023-05-16T01:52:36;14.30;;;3.25;;
19814;SDS011;10067;53.092;8.800;2023-05-16T01:55:04;16.88;;;3.50;;
19814;SDS011;10067;53.092;8.800;2023-05-16T01:57:35;15.40;;;3.92;;
19814;SDS011;10067;53.092;8.800;2023-05-16T02:00:01;17.40;;;3.92;;
19814;SDS011;10067;53.092;8.800;2023-05-16T02:02:30;19.40;;;7.00;;
19814;SDS011;10067;53.092;8.800;2023-05-16T02:04:56;24.10;;;4.85;;
19814;SDS011;10067;53.092;8.800;2023-05-16T02:07:22;12.15;;;3.47;;
19814;SDS011;10067;53.092;8.800;2023-05-16T02:09:49;15.65;;;3.67;;
19814;SDS011;10067;53.092;8.800;2023-05-16T02:12:15;20.23;;;4.55;;
19814;SDS011;10067;53.092;8.800;2023-05-16T02:14:42;12.50;;;3.05;;
19814;SDS011;10067;53.092;8.800;2023-05-16T02:17:08;15.80;;;3.40;;
19814;SDS011;10067;53.092;8.800;2023-05-16T02:19:36;18.73;;;3.30;;
19814;SDS011;10067;53.092;8.800;2023-05-16T02:22:03;20.45;;;3.97;;
19814;SDS011;10067;53.092;8.800;2023-05-16T02:24:29;11.43;;;3.08;;
19814;SDS011;10067;53.092;8.800;2023-05-16T02:26:55;17.95;;;3.58;;
19814;SDS011;10067;53.092;8.800;2023-05-16T02:29:22;15.57;;;3.20;;
19814;SDS011;10067;53.092;8.800;2023-05-16T02:31:48;24.17;;;4.82;;
19814;SDS011;10067;53.092;8.800;2023-05-16T02:34:15;25.88;;;4.15;;
19814;SDS011;10067;53.092;8.800;2023-05-16T02:36:43;23.35;;;4.00;;
19814;SDS011;10067;53.092;8.800;2023-05-16T02:39:09;21.38;;;3.80;;
19814;SDS011;10067;53.092;8.800;2023-05-16T02:41:36;27.02;;;3.58;;
19814;SDS011;10067;53.092;8.800;2023-05-16T02:44:02;21.38;;;3.40;;
19814;SDS011;10067;53.092;8.800;2023-05-16T02:46:29;23.77;;;3.30;;
19814;SDS011;10067;53.092;8.800;2023-05-16T02:48:56;19.23;;;3.30;;
19814;SDS011;10067;53.092;8.800;2023-05-16T02:51:23;29.00;;;4.85;;
19814;SDS011;10067;53.092;8.800;2023-05-16T02:53:51;20.10;;;3.72;;
19814;SDS011;10067;53.092;8.800;2023-05-16T02:56:17;16.05;;;3.38;;
19814;SDS011;10067;53.092;8.800;2023-05-16T02:58:45;19.52;;;3.28;;
19814;SDS011;10067;53.092;8.800;2023-05-16T03:01:11;29.10;;;3.72;;
19814;SDS011;10067;53.092;8.800;2023-05-16T03:03:38;21.58;;;3.75;;
19814;SDS011;10067;53.092;8.800;2023-05-16T03:06:04;18.60;;;3.58;;
19814;SDS011;10067;53.092;8.800;2023-05-16T03:08:31;17.27;;;4.25;;
19814;SDS011;10067;53.092;8.800;2023-05-16T03:10:59;25.83;;;3.75;;
19814;SDS011;10067;53.092;8.800;2023-05-16T03:13:25;31.75;;;5.10;;
19814;SDS011;10067;53.092;8.800;2023-05-16T03:15:53;22.67;;;4.00;;
19814;SDS011;10067;53.092;8.800;2023-05-16T03:18:19;26.88;;;4.43;;
19814;SDS011;10067;53.092;8.800;2023-05-16T03:20:46;20.15;;;3.63;;
19814;SDS011;10067;53.092;8.800;2023-05-16T03:23:12;21.48;;;3.90;;
19814;SDS011;10067;53.092;8.800;2023-05-16T03:25:39;21.73;;;3.50;;
19814;SDS011;10067;53.092;8.800;2023-05-16T03:28:09;19.27;;;4.15;;
19814;SDS011;10067;53.092;8.800;2023-05-16T03:30:36;27.30;;;5.35;;
19814;SDS011;10067;53.092;8.800;2023-05-16T03:33:02;21.92;;;4.10;;
19814;SDS011;10067;53.092;8.800;2023-05-16T03:35:29;17.02;;;4.43;;
19814;SDS011;10067;53.092;8.800;2023-05-16T03:37:56;23.83;;;3.58;;
19814;SDS011;10067;53.092;8.800;2023-05-16T03:40:22;29.60;;;3.85;;
19814;SDS011;10067;53.092;8.800;2023-05-16T03:42:49;18.05;;;3.55;;
19814;SDS011;10067;53.092;8.800;2023-05-16T03:45:17;20.75;;;4.10;;
19814;SDS011;10067;53.092;8.800;2023-05-16T03:47:43;22.98;;;4.15;;
19814;SDS011;10067;53.092;8.800;2023-05-16T03:50:10;18.92;;;3.13;;
19814;SDS011;10067;53.092;8.800;2023-05-16T03:52:37;22.80;;;4.88;;
19814;SDS011;10067;53.092;8.800;2023-05-16T03:55:03;20.25;;;2.88;;
19814;SDS011;10067;53.092;8.800;2023-05-16T03:57:30;12.88;;;3.28;;
19814;SDS011;10067;53.092;8.800;2023-05-16T03:59:56;21.10;;;4.35;;
19814;SDS011;10067;53.092;8.800;2023-05-16T04:02:24;22.92;;;3.40;;
19814;SDS011;10067;53.092;8.800;2023-05-16T04:04:51;22.02;;;3.60;;
19814;SDS011;10067;53.092;8.800;2023-05-16T04:07:17;17.75;;;3.30;;
19814;SDS011;10067;53.092;8.800;2023-05-16T04:09:44;22.30;;;6.10;;
19814;SDS011;10067;53.092;8.800;2023-05-16T04:12:10;16.58;;;3.97;;
19814;SDS011;10067;53.092;8.800;2023-05-16T04:14:36;28.42;;;4.68;;
19814;SDS011;10067;53.092;8.800;2023-05-16T04:17:03;24.52;;;4.53;;
19814;SDS011;10067;53.092;8.800;2023-05-16T04:19:31;19.70;;;3.65;;
19814;SDS011;10067;53.092;8.800;2023-05-16T04:21:57;17.13;;;3.58;;
19814;SDS011;10067;53.092;8.800;2023-05-16T04:24:24;23.08;;;3.58;;
19814;SDS011;10067;53.092;8.800;2023-05-16T04:26:52;25.92;;;3.92;;
19814;SDS011;10067;53.092;8.800;2023-05-16T04:29:19;21.30;;;4.05;;
19814;SDS011;10067;53.092;8.800;2023-05-16T04:31:46;21.38;;;5.05;;
19814;SDS011;10067;53.092;8.800;2023-05-16T04:34:12;23.85;;;4.90;;
19814;SDS011;10067;53.092;8.800;2023-05-16T04:36:41;21.40;;;4.47;;
19814;SDS011;10067;53.092;8.800;2023-05-16T04:39:08;21.42;;;4.10;;
19814;SDS011;10067;53.092;8.800;2023-05-16T04:41:34;23.25;;;8.68;;
19814;SDS011;10067;53.092;8.800;2023-05-16T04:44:01;20.73;;;5.05;;
19814;SDS011;10067;53.092;8.800;2023-05-16T04:46:28;23.08;;;5.03;;
19814;SDS011;10067;53.092;8.800;2023-05-16T04:48:54;20.60;;;4.93;;
19814;SDS011;10067;53.092;8.800;2023-05-16T04:51:21;22.33;;;4.70;;
19814;SDS011;10067;53.092;8.800;2023-05-16T04:53:48;21.02;;;4.88;;
19814;SDS011;10067;53.092;8.800;2023-05-16T04:56:15;22.73;;;5.80;;
19814;SDS011;10067;53.092;8.800;2023-05-16T04:58:41;24.85;;;5.43;;
19814;SDS011;10067;53.092;8.800;2023-05-16T05:01:08;30.50;;;9.73;;
19814;SDS011;10067;53.092;8.800;2023-05-16T05:03:38;27.20;;;6.75;;
19814;SDS011;10067;53.092;8.800;2023-05-16T05:06:04;30.38;;;6.53;;
19814;SDS011;10067;53.092;8.800;2023-05-16T05:08:31;26.10;;;6.45;;
19814;SDS011;10067;53.092;8.800;2023-05-16T05:10:58;28.10;;;7.60;;
19814;SDS011;10067;53.092;8.800;2023-05-16T05:13:25;22.60;;;6.20;;
19814;SDS011;10067;53.092;8.800;2023-05-16T05:15:51;25.20;;;5.22;;
19814;SDS011;10067;53.092;8.800;2023-05-16T05:18:18;22.85;;;5.03;;
19814;SDS011;10067;53.092;8.800;2023-05-16T05:20:44;20.88;;;5.07;;
19814;SDS011;10067;53.092;8.800;2023-05-16T05:23:11;18.73;;;3.92;;
19814;SDS011;10067;53.092;8.800;2023-05-16T05:25:37;18.00;;;4.85;;
19814;SDS011;10067;53.092;8.800;2023-05-16T05:28:05;17.55;;;5.50;;
19814;SDS011;10067;53.092;8.800;2023-05-16T05:30:31;23.80;;;5.78;;
19814;SDS011;10067;53.092;8.800;2023-05-16T05:32:58;19.88;;;5.07;;
19814;SDS011;10067;53.092;8.800;2023-05-16T05:35:24;25.30;;;5.25;;
19814;SDS011;10067;53.092;8.800;2023-05-16T05:37:51;22.85;;;5.13;;
19814;SDS011;10067;53.092;8.800;2023-05-16T05:40:17;25.40;;;5.60;;
19814;SDS011;10067;53.092;8.800;2023-05-16T05:42:44;23.95;;;5.00;;
19814;SDS011;10067;53.092;8.800;2023-05-16T05:45:11;20.23;;;4.55;;
19814;SDS011;10067;53.092;8.800;2023-05-16T05:47:38;25.90;;;6.38;;
19814;SDS011;10067;53.092;8.800;2023-05-16T05:50:05;29.02;;;6.18;;
19814;SDS011;10067;53.092;8.800;2023-05-16T05:52:31;21.05;;;5.35;;
19814;SDS011;10067;53.092;8.800;2023-05-16T05:54:58;17.80;;;5.15;;
19814;SDS011;10067;53.092;8.800;2023-05-16T05:57:25;21.20;;;5.07;;
19814;SDS011;10067;53.092;8.800;2023-05-16T05:59:51;18.17;;;5.00;;
19814;SDS011;10067;53.092;8.800;2023-05-16T06:02:19;16.98;;;3.65;;
19814;SDS011;10067;53.092;8.800;2023-05-16T06:04:45;23.00;;;5.10;;
19814;SDS011;10067;53.092;8.800;2023-05-16T06:07:12;20.85;;;4.80;;
19814;SDS011;10067;53.092;8.800;2023-05-16T06:09:40;24.88;;;5.07;;
19814;SDS011;10067;53.092;8.800;2023-05-16T06:12:06;30.83;;;6.20;;
19814;SDS011;10067;53.092;8.800;2023-05-16T06:14:33;18.27;;;4.50;;
19814;SDS011;10067;53.092;8.800;2023-05-16T06:16:59;26.98;;;5.53;;
19814;SDS011;10067;53.092;8.800;2023-05-16T06:19:27;27.90;;;5.53;;
19814;SDS011;10067;53.092;8.800;2023-05-16T06:21:53;26.95;;;5.15;;
19814;SDS011;10067;53.092;8.800;2023-05-16T06:24:20;24.67;;;4.30;;
19814;SDS011;10067;53.092;8.800;2023-05-16T06:26:48;24.73;;;5.97;;
19814;SDS011;10067;53.092;8.800;2023-05-16T06:29:17;19.33;;;5.10;;
19814;SDS011;10067;53.092;8.800;2023-05-16T06:31:44;19.30;;;4.78;;
19814;SDS011;10067;53.092;8.800;2023-05-16T06:34:11;18.45;;;3.80;;
19814;SDS011;10067;53.092;8.800;2023-05-16T06:36:38;17.83;;;3.30;;
19814;SDS011;10067;53.092;8.800;2023-05-16T06:39:05;22.05;;;4.13;;
19814;SDS011;10067;53.092;8.800;2023-05-16T06:41:31;19.63;;;4.88;;
19814;SDS011;10067;53.092;8.800;2023-05-16T06:43:57;15.00;;;3.30;;
19814;SDS011;10067;53.092;8.800;2023-05-16T06:46:24;20.75;;;2.97;;
19814;SDS011;10067;53.092;8.800;2023-05-16T06:48:51;15.32;;;2.90;;
19814;SDS011;10067;53.092;8.800;2023-05-16T06:51:17;13.55;;;2.72;;
19814;SDS011;10067;53.092;8.800;2023-05-16T06:53:47;16.48;;;2.20;;
19814;SDS011;10067;53.092;8.800;2023-05-16T06:56:14;15.25;;;2.88;;
19814;SDS011;10067;53.092;8.800;2023-05-16T06:58:41;18.55;;;2.97;;
19814;SDS011;10067;53.092;8.800;2023-05-16T07:01:08;19.02;;;3.45;;
19814;SDS011;10067;53.092;8.800;2023-05-16T07:03:35;23.63;;;3.47;;
19814;SDS011;10067;53.092;8.800;2023-05-16T07:06:02;18.38;;;3.28;;
19814;SDS011;10067;53.092;8.800;2023-05-16T07:08:30;16.30;;;2.83;;
19814;SDS011;10067;53.092;8.800;2023-05-16T07:10:58;18.92;;;3.47;;
19814;SDS011;10067;53.092;8.800;2023-05-16T07:13:26;25.77;;;3.85;;
19814;SDS011;10067;53.092;8.800;2023-05-16T07:15:53;14.93;;;3.25;;
19814;SDS011;10067;53.092;8.800;2023-05-16T07:18:20;17.30;;;3.25;;
19814;SDS011;10067;53.092;8.800;2023-05-16T07:20:47;11.40;;;2.80;;
19814;SDS011;10067;53.092;8.800;2023-05-16T07:23:15;15.10;;;2.97;;
19814;SDS011;10067;53.092;8.800;2023-05-16T07:25:42;15.25;;;4.03;;
19814;SDS011;10067;53.092;8.800;2023-05-16T07:28:11;12.77;;;3.60;;
19814;SDS011;10067;53.092;8.800;2023-05-16T07:30:38;12.13;;;2.40;;
19814;SDS011;10067;53.092;8.800;2023-05-16T07:33:04;9.70;;;2.33;;
19814;SDS011;10067;53.092;8.800;2023-05-16T07:35:31;12.15;;;3.13;;
19814;SDS011;10067;53.092;8.800;2023-05-16T07:37:58;15.50;;;2.95;;
19814;SDS011;10067;53.092;8.800;2023-05-16T07:40:25;10.90;;;2.10;;
19814;SDS011;10067;53.092;8.800;2023-05-16T07:42:53;9.95;;;2.78;;
19814;SDS011;10067;53.092;8.800;2023-05-16T07:45:22;11.52;;;2.90;;
19814;SDS011;10067;53.092;8.800;2023-05-16T07:47:49;12.48;;;3.20;;
19814;SDS011;10067;53.092;8.800;2023-05-16T07:50:16;14.18;;;4.47;;
19814;SDS011;10067;53.092;8.800;2023-05-16T07:52:43;21.23;;;7.00;;
19814;SDS011;10067;53.092;8.800;2023-05-16T07:55:11;11.38;;;3.30;;
19814;SDS011;10067;53.092;8.800;2023-05-16T07:57:38;7.63;;;1.80;;
19814;SDS011;10067;53.092;8.800;2023-05-16T08:00:06;12.20;;;1.98;;
19814;SDS011;10067;53.092;8.800;2023-05-16T08:02:35;12.77;;;2.17;;
19814;SDS011;10067;53.092;8.800;2023-05-16T08:05:02;9.70;;;1.83;;
19814;SDS011;10067;53.092;8.800;2023-05-16T08:07:30;16.90;;;2.63;;
19814;SDS011;10067;53.092;8.800;2023-05-16T08:09:57;33.97;;;4.10;;
19814;SDS011;10067;53.092;8.800;2023-05-16T08:12:24;37.55;;;4.70;;
19814;SDS011;10067;53.092;8.800;2023-05-16T08:14:52;16.02;;;3.00;;
19814;SDS011;10067;53.092;8.800;2023-05-16T08:17:19;11.43;;;2.55;;
19814;SDS011;10067;53.092;8.800;2023-05-16T08:19:48;17.33;;;3.85;;
19814;SDS011;10067;53.092;8.800;2023-05-16T08:22:16;20.38;;;4.72;;
19814;SDS011;10067;53.092;8.800;2023-05-16T08:24:43;12.15;;;3.60;;
19814;SDS011;10067;53.092;8.800;2023-05-16T08:27:10;15.38;;;2.80;;
19814;SDS011;10067;53.092;8.800;2023-05-16T08:29:37;13.05;;;2.20;;
19814;SDS011;10067;53.092;8.800;2023-05-16T08:32:04;12.98;;;2.10;;
19814;SDS011;10067;53.092;8.800;2023-05-16T08:34:32;13.30;;;3.03;;
19814;SDS011;10067;53.092;8.800;2023-05-16T08:37:00;17.55;;;5.55;;
19814;SDS011;10067;53.092;8.800;2023-05-16T08:39:26;13.43;;;5.10;;
19814;SDS011;10067;53.092;8.800;2023-05-16T08:41:54;17.13;;;3.63;;
19814;SDS011;10067;53.092;8.800;2023-05-16T08:44:21;16.83;;;2.53;;
19814;SDS011;10067;53.092;8.800;2023-05-16T08:46:49;9.93;;;2.15;;
19814;SDS011;10067;53.092;8.800;2023-05-16T08:49:15;8.30;;;2.35;;
19814;SDS011;10067;53.092;8.800;2023-05-16T08:51:42;10.48;;;2.03;;
19814;SDS011;10067;53.092;8.800;2023-05-16T08:54:13;10.27;;;2.35;;
19814;SDS011;10067;53.092;8.800;2023-05-16T08:56:39;19.33;;;2.45;;
19814;SDS011;10067;53.092;8.800;2023-05-16T08:59:06;8.70;;;1.80;;
19814;SDS011;10067;53.092;8.800;2023-05-16T09:01:32;10.93;;;2.25;;
19814;SDS011;10067;53.092;8.800;2023-05-16T09:03:59;11.48;;;2.13;;
19814;SDS011;10067;53.092;8.800;2023-05-16T09:06:25;10.77;;;2.22;;
19814;SDS011;10067;53.092;8.800;2023-05-16T09:08:52;10.30;;;2.05;;
19814;SDS011;10067;53.092;8.800;2023-05-16T09:11:20;11.27;;;2.63;;
19814;SDS011;10067;53.092;8.800;2023-05-16T09:13:46;17.05;;;2.83;;
19814;SDS011;10067;53.092;8.800;2023-05-16T09:16:14;14.75;;;3.00;;
19814;SDS011;10067;53.092;8.800;2023-05-16T09:18:42;11.70;;;2.80;;
19814;SDS011;10067;53.092;8.800;2023-05-16T09:21:09;12.77;;;3.65;;
19814;SDS011;10067;53.092;8.800;2023-05-16T09:23:35;14.77;;;3.67;;
19814;SDS011;10067;53.092;8.800;2023-05-16T09:26:02;10.23;;;3.00;;
19814;SDS011;10067;53.092;8.800;2023-05-16T09:28:33;16.35;;;6.00;;
19814;SDS011;10067;53.092;8.800;2023-05-16T09:30:59;14.15;;;3.67;;
19814;SDS011;10067;53.092;8.800;2023-05-16T09:33:26;11.55;;;2.55;;
19814;SDS011;10067;53.092;8.800;2023-05-16T09:35:54;18.70;;;2.67;;
19814;SDS011;10067;53.092;8.800;2023-05-16T09:38:20;11.85;;;2.95;;
19814;SDS011;10067;53.092;8.800;2023-05-16T09:40:46;13.95;;;4.88;;
19814;SDS011;10067;53.092;8.800;2023-05-16T09:43:13;11.52;;;2.70;;
19814;SDS011;10067;53.092;8.800;2023-05-16T09:45:44;14.00;;;4.57;;
19814;SDS011;10067;53.092;8.800;2023-05-16T09:48:10;13.40;;;4.85;;
19814;SDS011;10067;53.092;8.800;2023-05-16T09:50:37;16.38;;;3.58;;
19814;SDS011;10067;53.092;8.800;2023-05-16T09:53:04;15.15;;;2.13;;
19814;SDS011;10067;53.092;8.800;2023-05-16T09:55:31;14.65;;;2.90;;
19814;SDS011;10067;53.092;8.800;2023-05-16T09:57:57;15.45;;;3.20;;
19814;SDS011;10067;53.092;8.800;2023-05-16T10:00:27;16.25;;;4.13;;
19814;SDS011;10067;53.092;8.800;2023-05-16T10:02:55;12.10;;;3.78;;
19814;SDS011;10067;53.092;8.800;2023-05-16T10:05:22;11.85;;;2.80;;
19814;SDS011;10067;53.092;8.800;2023-05-16T10:07:49;11.27;;;2.78;;
19814;SDS011;10067;53.092;8.800;2023-05-16T10:10:16;7.32;;;2.67;;
19814;SDS011;10067;53.092;8.800;2023-05-16T10:12:43;7.75;;;2.15;;
19814;SDS011;10067;53.092;8.800;2023-05-16T10:15:09;8.10;;;2.05;;
19814;SDS011;10067;53.092;8.800;2023-05-16T10:17:37;12.88;;;3.05;;
19814;SDS011;10067;53.092;8.800;2023-05-16T10:20:07;8.18;;;2.28;;
19814;SDS011;10067;53.092;8.800;2023-05-16T10:22:35;5.95;;;2.00;;
19814;SDS011;10067;53.092;8.800;2023-05-16T10:25:06;5.13;;;1.55;;
19814;SDS011;10067;53.092;8.800;2023-05-16T10:27:33;2.45;;;1.15;;
19814;SDS011;10067;53.092;8.800;2023-05-16T10:30:00;5.70;;;1.30;;
19814;SDS011;10067;53.092;8.800;2023-05-16T10:32:27;5.40;;;1.25;;
19814;SDS011;10067;53.092;8.800;2023-05-16T10:34:53;4.13;;;1.48;;
19814;SDS011;10067;53.092;8.800;2023-05-16T10:37:22;4.57;;;1.90;;
19814;SDS011;10067;53.092;8.800;2023-05-16T10:39:50;9.07;;;2.22;;
19814;SDS011;10067;53.092;8.800;2023-05-16T10:42:17;6.78;;;2.30;;
19814;SDS011;10067;53.092;8.800;2023-05-16T10:44:44;6.28;;;2.22;;
19814;SDS011;10067;53.092;8.800;2023-05-16T10:47:11;4.40;;;2.10;;
19814;SDS011;10067;53.092;8.800;2023-05-16T10:49:39;10.80;;;2.53;;
19814;SDS011;10067;53.092;8.800;2023-05-16T10:52:06;8.95;;;1.92;;
19814;SDS011;10067;53.092;8.800;2023-05-16T10:54:35;8.73;;;2.00;;
19814;SDS011;10067;53.092;8.800;2023-05-16T10:57:03;7.85;;;1.95;;
19814;SDS011;10067;53.092;8.800;2023-05-16T10:59:31;7.20;;;2.05;;
19814;SDS011;10067;53.092;8.800;2023-05-16T11:02:06;5.13;;;1.75;;
19814;SDS011;10067;53.092;8.800;2023-05-16T11:04:47;4.07;;;2.03;;
19814;SDS011;10067;53.092;8.800;2023-05-16T11:07:14;4.45;;;1.30;;
19814;SDS011;10067;53.092;8.800;2023-05-16T11:09:43;5.55;;;1.40;;
19814;SDS011;10067;53.092;8.800;2023-05-16T11:12:11;10.52;;;2.58;;
19814;SDS011;10067;53.092;8.800;2023-05-16T11:14:38;6.50;;;1.55;;
19814;SDS011;10067;53.092;8.800;2023-05-16T11:17:07;6.25;;;1.40;;
19814;SDS011;10067;53.092;8.800;2023-05-16T11:19:34;7.65;;;1.85;;
19814;SDS011;10067;53.092;8.800;2023-05-16T11:22:05;10.85;;;2.08;;
19814;SDS011;10067;53.092;8.800;2023-05-16T11:24:31;4.47;;;1.17;;
19814;SDS011;10067;53.092;8.800;2023-05-16T11:27:00;6.18;;;1.80;;
19814;SDS011;10067;53.092;8.800;2023-05-16T11:29:28;6.05;;;2.30;;
19814;SDS011;10067;53.092;8.800;2023-05-16T11:31:56;11.70;;;4.72;;
19814;SDS011;10067;53.092;8.800;2023-05-16T11:34:24;8.73;;;3.50;;
19814;SDS011;10067;53.092;8.800;2023-05-16T11:36:50;8.70;;;3.40;;
19814;SDS011;10067;53.092;8.800;2023-05-16T11:39:17;12.45;;;5.18;;
19814;SDS011;10067;53.092;8.800;2023-05-16T11:41:44;8.85;;;3.60;;
19814;SDS011;10067;53.092;8.800;2023-05-16T11:44:12;5.40;;;2.60;;
19814;SDS011;10067;53.092;8.800;2023-05-16T11:46:38;9.30;;;2.85;;
19814;SDS011;10067;53.092;8.800;2023-05-16T11:49:05;6.88;;;2.63;;
19814;SDS011;10067;53.092;8.800;2023-05-16T11:51:33;7.25;;;1.77;;
19814;SDS011;10067;53.092;8.800;2023-05-16T11:54:00;15.80;;;3.30;;
19814;SDS011;10067;53.092;8.800;2023-05-16T11:56:28;4.72;;;2.35;;
19814;SDS011;10067;53.092;8.800;2023-05-16T11:58:55;5.57;;;2.22;;
19814;SDS011;10067;53.092;8.800;2023-05-16T12:01:24;6.43;;;2.35;;
19814;SDS011;10067;53.092;8.800;2023-05-16T12:03:54;10.43;;;2.80;;
19814;SDS011;10067;53.092;8.800;2023-05-16T12:06:21;11.45;;;3.40;;
19814;SDS011;10067;53.092;8.800;2023-05-16T12:08:51;11.85;;;2.67;;
19814;SDS011;10067;53.092;8.800;2023-05-16T12:11:17;7.78;;;3.47;;
19814;SDS011;10067;53.092;8.800;2023-05-16T12:13:45;9.73;;;2.92;;
19814;SDS011;10067;53.092;8.800;2023-05-16T12:16:12;14.10;;;2.70;;
19814;SDS011;10067;53.092;8.800;2023-05-16T12:18:40;8.70;;;2.92;;
19814;SDS011;10067;53.092;8.800;2023-05-16T12:21:06;10.43;;;2.55;;
19814;SDS011;10067;53.092;8.800;2023-05-16T12:23:33;5.88;;;1.65;;
19814;SDS011;10067;53.092;8.800;2023-05-16T12:25:59;5.25;;;2.30;;
19814;SDS011;10067;53.092;8.800;2023-05-16T12:28:29;4.18;;;1.77;;
19814;SDS011;10067;53.092;8.800;2023-05-16T12:30:57;6.78;;;2.30;;
19814;SDS011;10067;53.092;8.800;2023-05-16T12:33:23;10.30;;;2.45;;
19814;SDS011;10067;53.092;8.800;2023-05-16T12:35:51;7.93;;;2.50;;
19814;SDS011;10067;53.092;8.800;2023-05-16T12:38:18;6.00;;;1.88;;
19814;SDS011;10067;53.092;8.800;2023-05-16T12:40:45;11.40;;;2.33;;
19814;SDS011;10067;53.092;8.800;2023-05-16T12:43:12;10.82;;;2.00;;
19814;SDS011;10067;53.092;8.800;2023-05-16T12:45:39;6.10;;;1.77;;
19814;SDS011;10067;53.092;8.800;2023-05-16T12:48:10;6.03;;;1.98;;
19814;SDS011;10067;53.092;8.800;2023-05-16T12:50:37;8.32;;;2.20;;
19814;SDS011;10067;53.092;8.800;2023-05-16T12:53:09;7.18;;;2.63;;
19814;SDS011;10067;53.092;8.800;2023-05-16T12:55:36;10.50;;;3.50;;
19814;SDS011;10067;53.092;8.800;2023-05-16T12:58:02;13.43;;;3.85;;
19814;SDS011;10067;53.092;8.800;2023-05-16T13:00:29;12.30;;;3.65;;
19814;SDS011;10067;53.092;8.800;2023-05-16T13:02:56;11.07;;;3.45;;
19814;SDS011;10067;53.092;8.800;2023-05-16T13:05:23;13.85;;;3.35;;
19814;SDS011;10067;53.092;8.800;2023-05-16T13:07:49;9.25;;;2.75;;
19814;SDS011;10067;53.092;8.800;2023-05-16T13:10:18;16.45;;;3.80;;
19814;SDS011;10067;53.092;8.800;2023-05-16T13:12:44;9.43;;;2.83;;
19814;SDS011;10067;53.092;8.800;2023-05-16T13:15:11;11.93;;;3.03;;
19814;SDS011;10067;53.092;8.800;2023-05-16T13:17:38;13.68;;;2.97;;
19814;SDS011;10067;53.092;8.800;2023-05-16T13:20:05;13.02;;;2.92;;
19814;SDS011;10067;53.092;8.800;2023-05-16T13:22:33;11.38;;;2.15;;
19814;SDS011;10067;53.092;8.800;2023-05-16T13:25:00;10.55;;;2.35;;
19814;SDS011;10067;53.092;8.800;2023-05-16T13:27:30;19.83;;;6.25;;
19814;SDS011;10067;53.092;8.800;2023-05-16T13:29:56;11.07;;;2.85;;
19814;SDS011;10067;53.092;8.800;2023-05-16T13:32:23;11.68;;;3.05;;
19814;SDS011;10067;53.092;8.800;2023-05-16T13:34:49;8.75;;;3.00;;
19814;SDS011;10067;53.092;8.800;2023-05-16T13:37:15;16.77;;;3.70;;
19814;SDS011;10067;53.092;8.800;2023-05-16T13:39:42;8.55;;;2.25;;
19814;SDS011;10067;53.092;8.800;2023-05-16T13:42:08;7.25;;;2.08;;
19814;SDS011;10067;53.092;8.800;2023-05-16T13:44:36;7.22;;;2.60;;
19814;SDS011;10067;53.092;8.800;2023-05-16T13:47:03;9.93;;;2.72;;
19814;SDS011;10067;53.092;8.800;2023-05-16T13:49:29;8.10;;;2.78;;
19814;SDS011;10067;53.092;8.800;2023-05-16T13:51:56;13.48;;;3.70;;
19814;SDS011;10067;53.092;8.800;2023-05-16T13:54:23;10.60;;;3.00;;
19814;SDS011;10067;53.092;8.800;2023-05-16T13:56:49;13.52;;;3.78;;
19814;SDS011;10067;53.092;8.800;2023-05-16T13:59:15;9.48;;;3.17;;
19814;SDS011;10067;53.092;8.800;2023-05-16T14:01:43;12.98;;;3.97;;
19814;SDS011;10067;53.092;8.800;2023-05-16T14:04:09;8.57;;;2.30;;
19814;SDS011;10067;53.092;8.800;2023-05-16T14:06:36;6.50;;;1.98;;
19814;SDS011;10067;53.092;8.800;2023-05-16T14:09:03;4.00;;;1.45;;
19814;SDS011;10067;53.092;8.800;2023-05-16T14:11:29;7.70;;;2.42;;
19814;SDS011;10067;53.092;8.800;2023-05-16T14:13:56;6.03;;;1.48;;
19814;SDS011;10067;53.092;8.800;2023-05-16T14:16:22;9.07;;;1.58;;
19814;SDS011;10067;53.092;8.800;2023-05-16T14:18:50;9.65;;;1.95;;
19814;SDS011;10067;53.092;8.800;2023-05-16T14:21:17;4.72;;;1.65;;
19814;SDS011;10067;53.092;8.800;2023-05-16T14:23:43;6.63;;;1.83;;
19814;SDS011;10067;53.092;8.800;2023-05-16T14:26:10;6.68;;;1.70;;
19814;SDS011;10067;53.092;8.800;2023-05-16T14:28:36;9.07;;;2.15;;
19814;SDS011;10067;53.092;8.800;2023-05-16T14:31:02;8.05;;;1.95;;
19814;SDS011;10067;53.092;8.800;2023-05-16T14:33:29;5.20;;;1.75;;
19814;SDS011;10067;53.092;8.800;2023-05-16T14:35:58;6.47;;;2.45;;
19814;SDS011;10067;53.092;8.800;2023-05-16T14:38:24;9.57;;;2.63;;